Time;durP1;ratioP1;P1;durP2;ratioP2;P2;SDS_P1;SDS_P2;PMS_P1;PMS_P2;Temp;Humidity;BMP_temperature;BMP_pressure;BME280_temperature;BME280_humidity;BME280_pressure;Samples;Min_cycle;Max_cycle;Signal;HPM_P1;HPM_P2
2022/03/21 00:01:19;;;;;;;46.92;32.30;;;;;;;;;;5047960;28;20070;-65
2022/03/21 00:03:45;;;;;;;50.80;34.33;;;;;;;;;;5068522;28;20127;-67
2022/03/21 00:06:11;;;;;;;48.58;33.72;;;;;;;;;;5053053;28;20479;-65
2022/03/21 00:08:38;;;;;;;43.78;30.58;;;;;;;;;;5037806;28;20397;-66
2022/03/21 00:11:04;;;;;;;46.97;31.65;;;;;;;;;;5054382;28;20381;-65
2022/03/21 00:13:30;;;;;;;45.45;32.20;;;;;;;;;;5054327;28;20055;-65
2022/03/21 00:15:57;;;;;;;41.97;29.45;;;;;;;;;;5053579;28;20041;-65
2022/03/21 00:18:24;;;;;;;49.75;33.85;;;;;;;;;;5070846;28;20037;-65
2022/03/21 00:20:53;;;;;;;49.13;33.03;;;;;;;;;;5055891;28;20547;-65
2022/03/21 00:23:20;;;;;;;49.65;32.85;;;;;;;;;;5045141;28;20043;-65
2022/03/21 00:25:46;;;;;;;42.80;29.90;;;;;;;;;;5052348;28;20060;-65
2022/03/21 00:28:12;;;;;;;47.42;32.40;;;;;;;;;;5054370;28;20049;-65
2022/03/21 00:30:39;;;;;;;44.22;30.77;;;;;;;;;;5053348;28;20107;-65
2022/03/21 00:33:06;;;;;;;45.05;31.75;;;;;;;;;;5049412;28;20095;-65
2022/03/21 00:35:32;;;;;;;51.92;34.60;;;;;;;;;;5068793;28;20082;-65
2022/03/21 00:37:58;;;;;;;57.72;35.90;;;;;;;;;;5037182;28;20037;-65
2022/03/21 00:40:25;;;;;;;57.90;36.38;;;;;;;;;;5053678;28;20048;-65
2022/03/21 00:42:51;;;;;;;55.67;35.40;;;;;;;;;;5071421;28;20037;-65
2022/03/21 00:45:18;;;;;;;60.38;37.60;;;;;;;;;;5053738;28;20056;-65
2022/03/21 00:47:45;;;;;;;58.83;36.80;;;;;;;;;;5053336;28;20034;-65
2022/03/21 00:50:12;;;;;;;61.45;38.50;;;;;;;;;;5049595;28;20064;-65
2022/03/21 00:52:39;;;;;;;61.50;38.67;;;;;;;;;;5049835;28;20093;-65
2022/03/21 00:55:06;;;;;;;64.20;39.05;;;;;;;;;;5052092;28;20048;-65
2022/03/21 00:57:33;;;;;;;59.83;37.47;;;;;;;;;;5049571;28;20036;-65
2022/03/21 00:59:59;;;;;;;58.10;37.13;;;;;;;;;;5051324;28;20052;-65
2022/03/21 01:02:25;;;;;;;61.75;37.85;;;;;;;;;;5050401;28;20681;-65
2022/03/21 01:04:51;;;;;;;64.45;39.35;;;;;;;;;;5055258;28;20052;-65
2022/03/21 01:07:17;;;;;;;63.97;39.80;;;;;;;;;;5053694;28;20053;-65
2022/03/21 01:09:43;;;;;;;60.22;39.25;;;;;;;;;;5046753;28;20043;-65
2022/03/21 01:12:09;;;;;;;59.20;38.35;;;;;;;;;;5053583;28;20065;-65
2022/03/21 01:14:35;;;;;;;61.00;37.95;;;;;;;;;;5051010;28;21400;-65
2022/03/21 01:17:01;;;;;;;60.55;39.13;;;;;;;;;;5053636;28;20041;-65
2022/03/21 01:19:30;;;;;;;61.65;38.88;;;;;;;;;;5053433;28;20049;-65
2022/03/21 01:21:56;;;;;;;61.47;39.15;;;;;;;;;;5054157;28;20044;-65
2022/03/21 01:24:22;;;;;;;61.08;38.42;;;;;;;;;;5053960;28;20040;-65
2022/03/21 01:26:48;;;;;;;58.33;36.63;;;;;;;;;;5048006;28;20041;-65
2022/03/21 01:29:14;;;;;;;58.50;37.13;;;;;;;;;;5052192;28;20481;-65
2022/03/21 01:31:40;;;;;;;59.78;36.88;;;;;;;;;;5052893;28;20538;-65
2022/03/21 01:34:06;;;;;;;60.03;37.78;;;;;;;;;;5052215;28;20041;-65
2022/03/21 01:36:32;;;;;;;57.00;35.90;;;;;;;;;;5052946;28;20120;-65
2022/03/21 01:38:58;;;;;;;55.28;36.53;;;;;;;;;;5053822;28;20050;-65
2022/03/21 01:41:24;;;;;;;53.00;35.40;;;;;;;;;;5051598;28;20537;-65
2022/03/21 01:44:04;;;;;;;50.47;33.42;;;;;;;;;;5052902;28;20499;-65
2022/03/21 01:46:31;;;;;;;45.05;30.25;;;;;;;;;;5053706;28;20041;-65
2022/03/21 01:48:57;;;;;;;53.63;30.80;;;;;;;;;;5052170;28;20052;-65
2022/03/21 01:51:25;;;;;;;83.93;32.28;;;;;;;;;;5073101;28;20377;-65
2022/03/21 01:56:37;;;;;;;58.78;29.27;;;;;;;;;;5054366;28;20063;-64
2022/03/21 01:59:03;;;;;;;48.97;31.10;;;;;;;;;;5055861;28;20480;-65
2022/03/21 02:01:29;;;;;;;47.28;31.05;;;;;;;;;;5053992;28;20501;-65
2022/03/21 02:03:55;;;;;;;50.00;32.10;;;;;;;;;;5051640;28;20044;-65
2022/03/21 02:06:21;;;;;;;46.97;30.50;;;;;;;;;;5054374;28;20063;-65
2022/03/21 02:08:48;;;;;;;46.72;30.27;;;;;;;;;;5051419;28;20664;-65
2022/03/21 02:11:15;;;;;;;47.97;30.25;;;;;;;;;;5055228;28;20552;-64
2022/03/21 02:13:42;;;;;;;45.97;30.70;;;;;;;;;;5022296;28;20392;-66
2022/03/21 02:16:08;;;;;;;47.47;30.40;;;;;;;;;;5054939;28;20037;-66
2022/03/21 02:18:36;;;;;;;50.85;32.58;;;;;;;;;;5060872;28;20045;-66
2022/03/21 02:21:03;;;;;;;51.20;32.50;;;;;;;;;;5056170;28;20036;-65
2022/03/21 02:23:35;;;;;;;46.60;31.25;;;;;;;;;;5062302;28;20075;-65
2022/03/21 02:26:02;;;;;;;48.50;31.98;;;;;;;;;;5039642;28;20124;-65
2022/03/21 02:28:29;;;;;;;54.13;34.03;;;;;;;;;;5054737;28;20485;-65
2022/03/21 02:30:56;;;;;;;50.03;33.33;;;;;;;;;;5073178;28;20036;-65
2022/03/21 02:33:22;;;;;;;54.50;35.10;;;;;;;;;;5054637;28;20037;-65
2022/03/21 02:35:49;;;;;;;50.50;32.88;;;;;;;;;;5037901;28;20033;-65
2022/03/21 02:38:16;;;;;;;57.08;35.88;;;;;;;;;;5055690;28;20048;-65
2022/03/21 02:40:42;;;;;;;58.00;36.65;;;;;;;;;;5055930;28;20484;-65
2022/03/21 02:43:08;;;;;;;58.53;36.33;;;;;;;;;;5056290;28;20484;-65
2022/03/21 02:45:34;;;;;;;64.15;37.40;;;;;;;;;;5056141;28;20090;-65
2022/03/21 02:48:00;;;;;;;62.45;37.95;;;;;;;;;;5055469;28;20039;-65
2022/03/21 02:50:49;;;;;;;65.32;37.97;;;;;;;;;;5055461;28;20045;-65
2022/03/21 02:53:16;;;;;;;69.72;41.00;;;;;;;;;;5055407;28;20120;-65
2022/03/21 02:55:42;;;;;;;71.38;40.83;;;;;;;;;;5065752;28;20048;-65
2022/03/21 02:58:08;;;;;;;63.72;39.78;;;;;;;;;;5072774;28;20037;-65
2022/03/21 03:00:34;;;;;;;67.25;39.40;;;;;;;;;;5055334;28;20050;-65
2022/03/21 03:03:00;;;;;;;67.10;39.97;;;;;;;;;;5073040;28;20389;-65
2022/03/21 03:05:26;;;;;;;67.13;40.58;;;;;;;;;;5054995;28;20457;-65
2022/03/21 03:07:52;;;;;;;66.10;40.05;;;;;;;;;;5050749;28;20037;-65
2022/03/21 03:10:18;;;;;;;63.40;38.20;;;;;;;;;;5049818;28;20045;-65
2022/03/21 03:12:44;;;;;;;66.15;39.22;;;;;;;;;;5055323;28;20040;-65
2022/03/21 03:15:11;;;;;;;62.80;38.90;;;;;;;;;;5054961;28;20131;-65
2022/03/21 03:17:37;;;;;;;64.72;37.60;;;;;;;;;;5054153;28;20044;-65
2022/03/21 03:20:03;;;;;;;60.25;38.20;;;;;;;;;;5034943;28;20378;-64
2022/03/21 03:22:29;;;;;;;65.40;38.22;;;;;;;;;;5054903;28;20044;-65
2022/03/21 03:24:56;;;;;;;58.63;37.75;;;;;;;;;;5071635;28;20036;-65
2022/03/21 03:27:22;;;;;;;60.85;37.03;;;;;;;;;;5053897;28;20044;-65
2022/03/21 03:29:48;;;;;;;57.42;35.08;;;;;;;;;;5053402;28;20362;-65
2022/03/21 03:32:14;;;;;;;59.03;36.47;;;;;;;;;;5051803;28;20413;-65
2022/03/21 03:34:40;;;;;;;58.15;35.30;;;;;;;;;;5054107;28;20037;-65
2022/03/21 03:37:07;;;;;;;52.80;33.88;;;;;;;;;;5050724;28;20378;-65
2022/03/21 03:39:33;;;;;;;55.15;35.03;;;;;;;;;;5030751;28;20036;-65
2022/03/21 03:41:59;;;;;;;56.42;33.38;;;;;;;;;;5054627;28;20106;-65
2022/03/21 03:44:26;;;;;;;53.60;33.10;;;;;;;;;;5053651;28;20048;-65
2022/03/21 03:46:52;;;;;;;55.17;32.88;;;;;;;;;;5054104;28;20044;-65
2022/03/21 03:49:18;;;;;;;57.22;34.15;;;;;;;;;;5038083;28;20052;-66
2022/03/21 03:51:44;;;;;;;53.90;32.47;;;;;;;;;;5054470;28;20389;-65
2022/03/21 03:54:11;;;;;;;53.13;33.10;;;;;;;;;;5055055;28;20048;-65
2022/03/21 03:56:37;;;;;;;51.33;31.17;;;;;;;;;;5071088;28;20486;-64
2022/03/21 03:59:03;;;;;;;49.72;31.80;;;;;;;;;;5054111;28;20055;-65
2022/03/21 04:01:29;;;;;;;51.15;31.75;;;;;;;;;;5052932;28;20071;-65
2022/03/21 04:03:55;;;;;;;48.20;30.40;;;;;;;;;;5054324;28;20080;-65
2022/03/21 04:06:22;;;;;;;48.75;30.65;;;;;;;;;;5072382;28;20041;-65
2022/03/21 04:08:49;;;;;;;49.65;30.88;;;;;;;;;;5070791;28;20040;-65
2022/03/21 04:11:16;;;;;;;51.90;30.75;;;;;;;;;;5053989;28;20378;-65
2022/03/21 04:13:42;;;;;;;50.70;31.05;;;;;;;;;;5058612;28;20124;-65
2022/03/21 04:16:09;;;;;;;46.35;30.33;;;;;;;;;;5062636;28;20436;-65
2022/03/21 04:18:35;;;;;;;48.55;30.17;;;;;;;;;;5053976;28;20040;-65
2022/03/21 04:21:02;;;;;;;45.45;29.60;;;;;;;;;;5071112;28;20499;-65
2022/03/21 04:23:28;;;;;;;47.80;29.65;;;;;;;;;;5059736;28;20122;-65
2022/03/21 04:25:54;;;;;;;50.58;29.45;;;;;;;;;;5053580;28;20115;-66
2022/03/21 04:28:20;;;;;;;47.45;29.33;;;;;;;;;;5053418;28;20477;-65
2022/03/21 04:30:46;;;;;;;47.28;29.20;;;;;;;;;;5072258;28;20040;-66
2022/03/21 04:33:13;;;;;;;50.78;29.83;;;;;;;;;;5053900;28;20098;-65
2022/03/21 04:35:39;;;;;;;47.95;30.27;;;;;;;;;;5056007;28;20045;-65
2022/03/21 04:38:13;;;;;;;48.75;29.42;;;;;;;;;;5056362;28;20039;-65
2022/03/21 04:40:40;;;;;;;45.67;28.42;;;;;;;;;;5054410;28;20124;-65
2022/03/21 04:43:06;;;;;;;50.60;29.83;;;;;;;;;;5053951;28;20044;-65
2022/03/21 04:45:32;;;;;;;54.90;30.90;;;;;;;;;;5053256;28;20047;-65
2022/03/21 04:47:58;;;;;;;55.50;32.05;;;;;;;;;;5053763;28;20036;-65
2022/03/21 04:50:25;;;;;;;52.10;30.17;;;;;;;;;;5054008;28;20056;-65
2022/03/21 04:52:51;;;;;;;58.05;30.83;;;;;;;;;;5057641;28;20485;-65
2022/03/21 04:55:17;;;;;;;49.60;30.17;;;;;;;;;;5054498;28;20153;-65
2022/03/21 04:57:43;;;;;;;51.42;30.15;;;;;;;;;;5053887;28;20044;-65
2022/03/21 05:00:09;;;;;;;51.60;31.05;;;;;;;;;;5053292;28;20068;-65
2022/03/21 05:02:35;;;;;;;52.60;31.10;;;;;;;;;;5053862;28;20036;-65
2022/03/21 05:05:02;;;;;;;51.45;30.40;;;;;;;;;;5053879;28;20085;-65
2022/03/21 05:07:29;;;;;;;49.60;29.23;;;;;;;;;;5052824;28;20041;-65
2022/03/21 05:09:55;;;;;;;51.58;31.50;;;;;;;;;;5067958;28;20041;-65
2022/03/21 05:12:22;;;;;;;52.05;31.20;;;;;;;;;;5052035;28;20051;-65
2022/03/21 05:14:48;;;;;;;52.75;30.20;;;;;;;;;;5036582;28;20076;-65
2022/03/21 05:17:17;;;;;;;48.92;28.45;;;;;;;;;;5053096;28;20530;-65
2022/03/21 05:19:44;;;;;;;54.58;29.90;;;;;;;;;;5036519;28;20146;-65
2022/03/21 05:22:10;;;;;;;49.58;29.30;;;;;;;;;;5053240;28;20389;-65
2022/03/21 05:35:55;;;;;;;45.78;27.88;;;;;;;;;;5052097;28;20071;-65
2022/03/21 05:38:28;;;;;;;43.20;26.10;;;;;;;;;;5051343;28;20064;-65
2022/03/21 05:40:59;;;;;;;43.33;25.73;;;;;;;;;;5053717;28;20033;-65
2022/03/21 05:43:26;;;;;;;37.92;24.65;;;;;;;;;;5053784;28;20432;-65
2022/03/21 05:45:52;;;;;;;39.53;24.85;;;;;;;;;;5067898;28;20072;-65
2022/03/21 05:51:04;;;;;;;36.90;23.17;;;;;;;;;;5055778;28;20056;-64
2022/03/21 05:53:30;;;;;;;34.70;21.75;;;;;;;;;;5057002;28;20056;-65
2022/03/21 05:56:00;;;;;;;33.65;22.42;;;;;;;;;;5057212;28;20036;-65
2022/03/21 05:58:26;;;;;;;31.25;21.02;;;;;;;;;;5053081;28;20051;-65
2022/03/21 06:00:52;;;;;;;29.02;20.20;;;;;;;;;;5054720;28;20074;-65
2022/03/21 06:03:18;;;;;;;29.33;19.23;;;;;;;;;;5056212;28;20048;-65
2022/03/21 06:05:45;;;;;;;28.85;19.15;;;;;;;;;;5055841;28;20048;-65
2022/03/21 06:08:12;;;;;;;29.30;19.73;;;;;;;;;;5054642;28;20047;-65
2022/03/21 06:10:38;;;;;;;26.17;18.10;;;;;;;;;;5051367;28;20075;-65
2022/03/21 06:13:07;;;;;;;26.38;17.95;;;;;;;;;;5054041;28;20082;-65
2022/03/21 06:15:33;;;;;;;29.70;18.60;;;;;;;;;;5042205;28;20033;-65
2022/03/21 06:18:01;;;;;;;26.98;18.50;;;;;;;;;;5056641;28;20045;-65
2022/03/21 06:20:27;;;;;;;28.13;17.88;;;;;;;;;;5062028;28;20389;-65
2022/03/21 06:22:53;;;;;;;25.83;18.27;;;;;;;;;;5055847;28;20039;-65
2022/03/21 06:25:19;;;;;;;27.88;18.42;;;;;;;;;;5054098;28;20044;-65
2022/03/21 06:27:45;;;;;;;27.90;18.98;;;;;;;;;;5042746;28;20037;-65
2022/03/21 06:30:11;;;;;;;29.25;18.15;;;;;;;;;;5053258;28;20037;-65
2022/03/21 06:32:38;;;;;;;30.67;19.02;;;;;;;;;;5073047;28;20040;-65
2022/03/21 06:35:05;;;;;;;32.78;20.80;;;;;;;;;;5061710;28;20047;-66
2022/03/21 06:37:32;;;;;;;30.70;21.00;;;;;;;;;;5044588;28;20036;-65
2022/03/21 06:39:58;;;;;;;29.70;19.00;;;;;;;;;;5055835;28;20047;-65
2022/03/21 06:42:24;;;;;;;32.05;20.23;;;;;;;;;;5074276;28;20048;-65
2022/03/21 06:44:50;;;;;;;35.35;21.17;;;;;;;;;;5056121;28;20131;-65
2022/03/21 06:47:20;;;;;;;31.83;20.73;;;;;;;;;;5048325;28;20493;-65
2022/03/21 06:49:46;;;;;;;34.60;21.55;;;;;;;;;;5073411;28;20049;-65
2022/03/21 06:52:14;;;;;;;35.53;22.92;;;;;;;;;;5063268;28;20048;-65
2022/03/21 06:54:42;;;;;;;35.45;22.38;;;;;;;;;;5050056;28;20040;-65
2022/03/21 06:57:09;;;;;;;37.65;23.55;;;;;;;;;;5053755;28;20051;-65
2022/03/21 06:59:35;;;;;;;43.05;24.67;;;;;;;;;;5047472;28;20049;-65
2022/03/21 07:02:02;;;;;;;38.08;23.88;;;;;;;;;;5055896;28;20053;-64
2022/03/21 07:04:28;;;;;;;35.88;23.48;;;;;;;;;;5053215;28;20059;-64
2022/03/21 07:06:54;;;;;;;38.67;22.73;;;;;;;;;;5074202;28;20392;-65
2022/03/21 07:09:21;;;;;;;36.80;23.52;;;;;;;;;;5068481;28;20136;-65
2022/03/21 07:11:47;;;;;;;33.67;22.17;;;;;;;;;;5055979;28;20048;-64
2022/03/21 07:14:13;;;;;;;39.70;23.20;;;;;;;;;;5055917;28;20094;-65
2022/03/21 07:16:39;;;;;;;37.88;23.88;;;;;;;;;;5055851;28;20033;-65
2022/03/21 07:19:06;;;;;;;37.50;23.90;;;;;;;;;;5055473;28;20051;-64
2022/03/21 07:21:32;;;;;;;42.63;25.60;;;;;;;;;;5055445;28;20056;-65
2022/03/21 07:23:58;;;;;;;41.90;26.23;;;;;;;;;;5055868;28;20040;-65
2022/03/21 07:26:25;;;;;;;45.80;25.70;;;;;;;;;;5056670;28;20459;-65
2022/03/21 07:28:51;;;;;;;44.70;26.77;;;;;;;;;;5055592;28;20554;-65
2022/03/21 07:31:17;;;;;;;43.55;26.67;;;;;;;;;;5055203;28;20476;-64
2022/03/21 07:33:43;;;;;;;40.90;25.20;;;;;;;;;;5055473;28;20064;-65
2022/03/21 07:36:10;;;;;;;41.70;26.05;;;;;;;;;;5073308;28;20040;-65
2022/03/21 07:38:36;;;;;;;44.25;26.20;;;;;;;;;;5054985;28;20480;-65
2022/03/21 07:41:05;;;;;;;42.97;25.42;;;;;;;;;;5055011;28;20051;-64
2022/03/21 07:43:31;;;;;;;50.60;27.80;;;;;;;;;;5038160;28;20063;-65
2022/03/21 07:48:42;;;;;;;46.20;27.13;;;;;;;;;;5072818;28;20045;-65
2022/03/21 07:51:09;;;;;;;43.92;26.65;;;;;;;;;;5054342;28;20455;-65
2022/03/21 07:53:35;;;;;;;46.67;25.80;;;;;;;;;;5054776;28;20396;-65
2022/03/21 07:56:01;;;;;;;42.58;26.40;;;;;;;;;;5039819;28;20041;-64
2022/03/21 07:58:27;;;;;;;45.63;26.13;;;;;;;;;;5051059;28;20052;-65
2022/03/21 08:00:56;;;;;;;47.65;27.52;;;;;;;;;;5072339;28;20035;-65
2022/03/21 08:03:22;;;;;;;37.97;23.95;;;;;;;;;;5073019;28;20040;-65
2022/03/21 08:05:48;;;;;;;42.17;25.58;;;;;;;;;;5054118;28;20040;-65
2022/03/21 08:08:15;;;;;;;40.58;24.40;;;;;;;;;;5054764;28;20067;-65
2022/03/21 08:10:42;;;;;;;39.90;24.27;;;;;;;;;;5054220;28;20045;-65
2022/03/21 08:13:08;;;;;;;38.35;22.23;;;;;;;;;;5049586;28;20037;-65
2022/03/21 08:15:38;;;;;;;32.40;21.52;;;;;;;;;;5052726;28;20396;-65
2022/03/21 08:18:05;;;;;;;36.13;22.45;;;;;;;;;;5051456;28;20050;-65
2022/03/21 08:20:35;;;;;;;35.28;21.83;;;;;;;;;;5054399;28;20384;-65
2022/03/21 08:23:02;;;;;;;36.58;20.20;;;;;;;;;;5058468;28;20476;-65
2022/03/21 08:25:30;;;;;;;37.03;22.75;;;;;;;;;;5049216;28;20528;-65
2022/03/21 08:27:56;;;;;;;32.15;21.70;;;;;;;;;;5053325;28;20090;-65
2022/03/21 08:30:22;;;;;;;36.17;22.13;;;;;;;;;;5052608;28;20135;-65
2022/03/21 08:32:49;;;;;;;35.33;21.35;;;;;;;;;;5053398;28;20677;-65
2022/03/21 08:35:16;;;;;;;33.92;20.70;;;;;;;;;;5065910;28;20044;-65
2022/03/21 08:37:42;;;;;;;33.75;21.40;;;;;;;;;;5048235;28;20392;-65
2022/03/21 08:40:09;;;;;;;37.80;21.20;;;;;;;;;;5074247;28;20066;-65
2022/03/21 08:42:36;;;;;;;31.85;20.48;;;;;;;;;;5061659;28;20055;-65
2022/03/21 08:45:02;;;;;;;32.65;20.05;;;;;;;;;;5054399;28;20119;-65
2022/03/21 08:47:28;;;;;;;30.25;19.77;;;;;;;;;;5070728;28;20584;-66
2022/03/21 08:49:54;;;;;;;31.13;18.60;;;;;;;;;;5052632;28;20402;-65
2022/03/21 08:52:20;;;;;;;31.17;19.77;;;;;;;;;;5046525;28;20045;-65
2022/03/21 08:54:46;;;;;;;28.52;19.13;;;;;;;;;;5052690;28;20041;-65
2022/03/21 08:57:12;;;;;;;32.60;20.52;;;;;;;;;;5047522;28;20535;-65
2022/03/21 08:59:39;;;;;;;28.77;19.48;;;;;;;;;;5036311;28;20132;-65
2022/03/21 09:02:05;;;;;;;28.20;19.10;;;;;;;;;;5052154;28;20037;-65
2022/03/21 09:04:31;;;;;;;30.63;20.52;;;;;;;;;;5053747;28;20048;-65
2022/03/21 09:06:58;;;;;;;30.27;19.98;;;;;;;;;;5052300;28;20045;-65
2022/03/21 09:09:24;;;;;;;30.20;19.40;;;;;;;;;;5047882;28;20139;-65
2022/03/21 09:11:51;;;;;;;31.58;19.42;;;;;;;;;;5038554;28;20044;-65
2022/03/21 09:14:17;;;;;;;29.10;19.02;;;;;;;;;;5047643;28;20040;-65
2022/03/21 09:16:43;;;;;;;29.42;19.23;;;;;;;;;;5050896;28;20040;-65
2022/03/21 09:19:10;;;;;;;29.23;17.67;;;;;;;;;;5052140;28;20037;-65
2022/03/21 09:21:37;;;;;;;28.92;18.52;;;;;;;;;;5054194;28;20419;-65
2022/03/21 09:24:03;;;;;;;30.98;18.80;;;;;;;;;;5055034;28;20654;-65
2022/03/21 09:26:30;;;;;;;27.83;19.38;;;;;;;;;;5054725;28;20480;-65
2022/03/21 09:29:03;;;;;;;29.30;18.85;;;;;;;;;;5057203;28;20055;-65
2022/03/21 09:31:29;;;;;;;27.02;18.00;;;;;;;;;;5052437;28;20053;-65
2022/03/21 09:33:56;;;;;;;27.52;18.88;;;;;;;;;;5056319;28;20046;-65
2022/03/21 09:36:22;;;;;;;27.90;18.17;;;;;;;;;;5057933;28;20036;-65
2022/03/21 09:38:49;;;;;;;25.10;17.77;;;;;;;;;;5055558;28;20045;-65
2022/03/21 09:41:22;;;;;;;30.13;19.35;;;;;;;;;;5057174;28;20040;-65
2022/03/21 09:43:50;;;;;;;29.75;18.40;;;;;;;;;;5056869;28;20078;-65
2022/03/21 09:46:17;;;;;;;25.83;18.67;;;;;;;;;;5057115;28;20052;-65
2022/03/21 09:48:47;;;;;;;30.75;20.20;;;;;;;;;;5057193;28;20078;-65
2022/03/21 09:51:13;;;;;;;32.05;20.40;;;;;;;;;;5048916;28;20057;-65
2022/03/21 09:53:39;;;;;;;29.17;20.90;;;;;;;;;;5052700;28;20447;-65
2022/03/21 09:56:08;;;;;;;30.27;19.52;;;;;;;;;;5043379;28;20041;-65
2022/03/21 09:58:34;;;;;;;30.67;19.50;;;;;;;;;;5060000;28;20142;-65
2022/03/21 10:01:00;;;;;;;30.13;18.48;;;;;;;;;;5056162;28;20053;-65
2022/03/21 10:03:26;;;;;;;29.02;18.77;;;;;;;;;;5052794;28;20044;-65
2022/03/21 10:05:52;;;;;;;32.42;19.65;;;;;;;;;;5049982;28;20064;-65
2022/03/21 10:08:22;;;;;;;28.08;19.65;;;;;;;;;;5057191;28;20452;-65
2022/03/21 10:10:52;;;;;;;38.40;21.20;;;;;;;;;;5054718;28;20032;-65
2022/03/21 10:13:20;;;;;;;31.38;19.92;;;;;;;;;;5055310;28;20040;-65
2022/03/21 10:15:46;;;;;;;31.20;21.27;;;;;;;;;;5056372;28;20048;-65
2022/03/21 10:18:12;;;;;;;30.20;20.50;;;;;;;;;;5056037;28;20106;-65
2022/03/21 10:20:39;;;;;;;33.20;21.42;;;;;;;;;;5055118;28;20044;-65
2022/03/21 10:23:25;;;;;;;27.60;20.77;;;;;;;;;;5054087;28;20105;-65
2022/03/21 10:25:51;;;;;;;32.17;20.13;;;;;;;;;;5056692;28;20040;-65
2022/03/21 10:28:46;;;;;;;30.00;18.73;;;;;;;;;;5056212;28;20127;-65
2022/03/21 10:31:12;;;;;;;32.70;19.23;;;;;;;;;;5039024;28;20056;-65
2022/03/21 10:33:38;;;;;;;27.45;18.00;;;;;;;;;;5055062;28;20072;-66
2022/03/21 10:36:05;;;;;;;29.25;18.30;;;;;;;;;;5039652;28;20044;-65
2022/03/21 10:38:35;;;;;;;33.15;19.35;;;;;;;;;;5055921;28;20162;-65
2022/03/21 10:41:08;;;;;;;30.88;19.90;;;;;;;;;;5055937;28;20389;-65
2022/03/21 10:43:34;;;;;;;29.02;18.75;;;;;;;;;;5055843;28;20106;-65
2022/03/21 10:46:02;;;;;;;29.25;19.60;;;;;;;;;;5051994;28;20384;-65
2022/03/21 10:48:29;;;;;;;30.27;18.67;;;;;;;;;;5055140;28;20041;-65
2022/03/21 10:50:56;;;;;;;31.20;18.77;;;;;;;;;;5065450;28;20056;-65
2022/03/21 10:53:26;;;;;;;28.17;17.92;;;;;;;;;;5073940;28;20105;-65
2022/03/21 10:55:52;;;;;;;27.88;18.88;;;;;;;;;;5055779;28;20037;-65
2022/03/21 10:58:33;;;;;;;25.73;17.40;;;;;;;;;;5055897;28;20506;-65
2022/03/21 11:01:10;;;;;;;30.35;19.27;;;;;;;;;;5054175;28;20072;-67
2022/03/21 11:03:40;;;;;;;27.33;19.15;;;;;;;;;;5054380;28;20041;-65
2022/03/21 11:06:07;;;;;;;29.13;19.38;;;;;;;;;;5056197;28;20051;-65
2022/03/21 11:08:33;;;;;;;30.08;19.23;;;;;;;;;;5059488;28;20040;-65
2022/03/21 11:11:00;;;;;;;28.60;18.77;;;;;;;;;;5038559;28;20041;-65
2022/03/21 11:13:27;;;;;;;29.15;18.95;;;;;;;;;;5072504;28;20044;-65
2022/03/21 11:15:53;;;;;;;26.48;17.70;;;;;;;;;;5054688;28;20032;-65
2022/03/21 11:18:21;;;;;;;25.38;19.00;;;;;;;;;;5052933;28;20043;-65
2022/03/21 11:20:47;;;;;;;26.90;18.58;;;;;;;;;;5053278;28;20260;-65
2022/03/21 11:23:18;;;;;;;27.65;18.33;;;;;;;;;;5052476;28;20066;-65
2022/03/21 11:25:53;;;;;;;28.95;18.70;;;;;;;;;;5054528;28;20085;-64
2022/03/21 11:28:27;;;;;;;30.90;17.85;;;;;;;;;;5054413;28;20059;-65
2022/03/21 11:31:00;;;;;;;29.00;18.50;;;;;;;;;;5054604;28;20064;-65
2022/03/21 11:33:41;;;;;;;27.40;17.95;;;;;;;;;;5052775;28;20036;-65
2022/03/21 11:36:08;;;;;;;30.08;17.73;;;;;;;;;;5052106;28;20047;-65
2022/03/21 11:38:47;;;;;;;30.77;18.42;;;;;;;;;;5052392;28;20049;-65
2022/03/21 11:41:32;;;;;;;28.17;17.90;;;;;;;;;;5056617;28;20511;-65
2022/03/21 11:44:04;;;;;;;28.70;18.30;;;;;;;;;;5071111;28;20103;-65
2022/03/21 11:46:39;;;;;;;26.77;16.88;;;;;;;;;;5053104;28;20132;-65
2022/03/21 11:49:25;;;;;;;29.15;17.88;;;;;;;;;;5053715;28;20036;-65
2022/03/21 11:52:01;;;;;;;27.27;18.15;;;;;;;;;;5053785;28;20052;-65
2022/03/21 11:54:37;;;;;;;26.38;17.45;;;;;;;;;;5054324;28;20037;-65
2022/03/21 11:57:04;;;;;;;25.50;16.73;;;;;;;;;;5052926;28;20113;-65
2022/03/21 11:59:33;;;;;;;28.77;16.90;;;;;;;;;;5051518;28;20046;-65
2022/03/21 12:01:59;;;;;;;25.27;16.77;;;;;;;;;;5069499;28;20032;-65
2022/03/21 12:04:25;;;;;;;21.65;15.80;;;;;;;;;;5049791;28;20048;-65
2022/03/21 12:06:57;;;;;;;24.23;16.90;;;;;;;;;;5052900;28;20113;-65
2022/03/21 12:09:23;;;;;;;25.83;17.55;;;;;;;;;;5052359;28;20036;-65
2022/03/21 12:11:50;;;;;;;28.85;17.30;;;;;;;;;;5053704;28;20072;-65
2022/03/21 12:14:22;;;;;;;27.58;17.25;;;;;;;;;;5053310;28;20052;-65
2022/03/21 12:17:08;;;;;;;23.60;16.23;;;;;;;;;;5060610;28;20079;-65
2022/03/21 12:19:47;;;;;;;26.60;16.80;;;;;;;;;;5052284;28;20071;-65
2022/03/21 12:22:36;;;;;;;26.42;17.40;;;;;;;;;;5035690;28;20096;-65
2022/03/21 12:25:10;;;;;;;29.52;17.65;;;;;;;;;;5054597;28;20040;-65
2022/03/21 12:27:45;;;;;;;25.00;16.38;;;;;;;;;;5053934;28;20067;-65
2022/03/21 12:30:20;;;;;;;28.35;16.92;;;;;;;;;;5048520;28;20040;-65
2022/03/21 12:32:50;;;;;;;25.08;16.98;;;;;;;;;;5055903;28;20079;-65
2022/03/21 12:35:31;;;;;;;26.77;17.55;;;;;;;;;;5055775;28;20044;-65
2022/03/21 12:38:21;;;;;;;28.38;16.83;;;;;;;;;;5053611;28;20036;-65
2022/03/21 12:40:47;;;;;;;27.73;16.63;;;;;;;;;;5040671;28;20554;-65
2022/03/21 12:43:15;;;;;;;27.17;17.15;;;;;;;;;;5052136;28;20496;-65
2022/03/21 12:45:43;;;;;;;24.65;16.08;;;;;;;;;;5052778;28;20519;-65
2022/03/21 12:48:11;;;;;;;22.45;15.25;;;;;;;;;;5037247;28;20048;-65
2022/03/21 12:50:38;;;;;;;26.67;15.85;;;;;;;;;;5052474;28;20041;-65
2022/03/21 12:53:06;;;;;;;25.75;15.57;;;;;;;;;;5052062;28;20128;-65
2022/03/21 12:55:32;;;;;;;24.92;15.05;;;;;;;;;;5024647;28;20044;-65
2022/03/21 12:58:18;;;;;;;24.05;15.75;;;;;;;;;;5037262;28;20044;-65
2022/03/21 13:00:44;;;;;;;27.25;17.05;;;;;;;;;;5054407;28;20377;-65
2022/03/21 13:03:14;;;;;;;26.63;16.63;;;;;;;;;;5055785;28;20044;-65
2022/03/21 13:11:21;;;;;;;26.35;15.65;;;;;;;;;;5056961;28;20052;-65
2022/03/21 13:13:53;;;;;;;23.38;14.23;;;;;;;;;;5053566;28;20094;-65
2022/03/21 13:16:20;;;;;;;24.35;15.40;;;;;;;;;;5073097;28;20037;-65
2022/03/21 13:18:46;;;;;;;22.77;14.98;;;;;;;;;;5057275;28;20078;-65
2022/03/21 13:21:12;;;;;;;24.52;14.90;;;;;;;;;;5056370;28;20051;-65
2022/03/21 13:23:43;;;;;;;23.60;15.82;;;;;;;;;;5061243;28;20044;-65
2022/03/21 13:26:16;;;;;;;25.15;15.18;;;;;;;;;;5057482;28;20044;-65
2022/03/21 13:28:42;;;;;;;26.88;15.63;;;;;;;;;;5039888;28;20047;-65
2022/03/21 13:31:11;;;;;;;28.00;15.93;;;;;;;;;;5055917;28;20398;-65
2022/03/21 13:33:38;;;;;;;27.02;15.48;;;;;;;;;;5049459;28;20520;-65
2022/03/21 13:36:05;;;;;;;26.08;15.85;;;;;;;;;;5048161;28;20131;-65
2022/03/21 13:38:34;;;;;;;25.88;15.35;;;;;;;;;;5047068;28;20042;-65
2022/03/21 13:41:00;;;;;;;26.67;16.17;;;;;;;;;;5051460;28;20151;-65
2022/03/21 13:43:28;;;;;;;27.73;16.45;;;;;;;;;;5051001;28;20127;-65
2022/03/21 13:45:55;;;;;;;28.95;15.90;;;;;;;;;;5068557;28;20071;-65
2022/03/21 13:48:32;;;;;;;24.50;15.93;;;;;;;;;;5051376;28;20408;-65
2022/03/21 13:51:02;;;;;;;23.77;16.17;;;;;;;;;;5050220;28;20528;-65
2022/03/21 13:53:29;;;;;;;27.48;15.73;;;;;;;;;;5069869;28;20093;-65
2022/03/21 13:55:55;;;;;;;26.60;16.63;;;;;;;;;;5052600;28;20040;-65
2022/03/21 13:58:28;;;;;;;23.08;15.50;;;;;;;;;;5037101;28;20468;-65
2022/03/21 14:00:55;;;;;;;23.92;16.00;;;;;;;;;;5052954;28;20074;-65
2022/03/21 14:03:33;;;;;;;29.33;15.65;;;;;;;;;;5072414;28;20508;-65
2022/03/21 14:05:59;;;;;;;23.45;15.30;;;;;;;;;;5050858;28;20036;-65
2022/03/21 14:08:25;;;;;;;23.13;16.25;;;;;;;;;;5052551;28;20052;-65
2022/03/21 14:10:53;;;;;;;33.40;16.77;;;;;;;;;;5036449;28;20047;-65
2022/03/21 14:13:19;;;;;;;26.20;15.82;;;;;;;;;;5050055;28;20422;-65
2022/03/21 14:15:46;;;;;;;26.60;15.48;;;;;;;;;;5051183;28;20040;-65
2022/03/21 14:18:13;;;;;;;26.25;16.30;;;;;;;;;;5051609;28;20521;-65
2022/03/21 14:20:39;;;;;;;25.20;15.95;;;;;;;;;;5051566;28;20049;-65
2022/03/21 14:23:07;;;;;;;22.70;16.80;;;;;;;;;;5051535;28;20048;-65
2022/03/21 14:28:18;;;;;;;25.08;15.77;;;;;;;;;;5051699;28;20048;-65
2022/03/21 14:30:44;;;;;;;25.58;16.17;;;;;;;;;;5050934;28;20067;-65
2022/03/21 14:33:10;;;;;;;28.67;16.25;;;;;;;;;;5050452;28;20047;-65
2022/03/21 14:35:37;;;;;;;28.75;17.13;;;;;;;;;;5050880;28;20094;-65
2022/03/21 14:38:03;;;;;;;29.50;16.45;;;;;;;;;;5052042;28;20039;-65
2022/03/21 14:40:29;;;;;;;25.10;16.98;;;;;;;;;;5035229;28;20061;-61
2022/03/21 14:42:55;;;;;;;23.25;16.20;;;;;;;;;;5069055;28;20396;-68
2022/03/21 14:45:22;;;;;;;25.63;16.05;;;;;;;;;;5057912;28;20043;-65
2022/03/21 14:47:48;;;;;;;26.23;16.17;;;;;;;;;;5047326;28;20040;-65